TAF KSAV
KSAV 270524Z 2706/2806 34004KT P6SM SKC FM271400 03005KT P6SM SKC FM272100 18004KT P6SM FEW250=
METAR KSAV
WC KSAV
WS KSAV
WV KSAV